sensor_id;sensor_type;location;lat;lon;timestamp;P1;durP1;ratioP1;P2;durP2;ratioP2
30327;SDS011;17133;52.418;13.398;2023-10-08T00:02:24;3.45;;;1.65;;
30327;SDS011;17133;52.418;13.398;2023-10-08T00:04:50;5.47;;;1.73;;
30327;SDS011;17133;52.418;13.398;2023-10-08T00:07:17;4.03;;;1.50;;
30327;SDS011;17133;52.418;13.398;2023-10-08T00:09:47;5.18;;;2.10;;
30327;SDS011;17133;52.418;13.398;2023-10-08T00:12:13;4.97;;;1.88;;
30327;SDS011;17133;52.418;13.398;2023-10-08T00:14:41;4.97;;;1.35;;
30327;SDS011;17133;52.418;13.398;2023-10-08T00:17:12;4.30;;;1.90;;
30327;SDS011;17133;52.418;13.398;2023-10-08T00:19:38;3.85;;;1.70;;
30327;SDS011;17133;52.418;13.398;2023-10-08T00:22:07;6.65;;;2.53;;
30327;SDS011;17133;52.418;13.398;2023-10-08T00:24:35;5.40;;;2.40;;
30327;SDS011;17133;52.418;13.398;2023-10-08T00:27:03;7.35;;;1.63;;
30327;SDS011;17133;52.418;13.398;2023-10-08T00:29:31;5.57;;;2.10;;
30327;SDS011;17133;52.418;13.398;2023-10-08T00:31:57;6.93;;;1.95;;
30327;SDS011;17133;52.418;13.398;2023-10-08T00:34:23;8.23;;;2.67;;
30327;SDS011;17133;52.418;13.398;2023-10-08T00:36:49;5.10;;;1.98;;
30327;SDS011;17133;52.418;13.398;2023-10-08T00:39:16;4.90;;;2.10;;
30327;SDS011;17133;52.418;13.398;2023-10-08T00:41:48;6.25;;;2.28;;
30327;SDS011;17133;52.418;13.398;2023-10-08T00:44:15;7.70;;;2.28;;
30327;SDS011;17133;52.418;13.398;2023-10-08T00:46:47;5.95;;;2.00;;
30327;SDS011;17133;52.418;13.398;2023-10-08T00:49:17;7.55;;;2.20;;
30327;SDS011;17133;52.418;13.398;2023-10-08T00:51:46;6.38;;;1.80;;
30327;SDS011;17133;52.418;13.398;2023-10-08T00:54:18;7.35;;;2.42;;
30327;SDS011;17133;52.418;13.398;2023-10-08T00:56:47;6.90;;;2.10;;
30327;SDS011;17133;52.418;13.398;2023-10-08T00:59:22;8.10;;;2.55;;
30327;SDS011;17133;52.418;13.398;2023-10-08T01:01:51;5.72;;;2.38;;
30327;SDS011;17133;52.418;13.398;2023-10-08T01:04:32;6.45;;;2.55;;
30327;SDS011;17133;52.418;13.398;2023-10-08T01:07:02;11.57;;;2.47;;
30327;SDS011;17133;52.418;13.398;2023-10-08T01:09:40;7.07;;;2.47;;
30327;SDS011;17133;52.418;13.398;2023-10-08T01:12:19;7.90;;;2.63;;
30327;SDS011;17133;52.418;13.398;2023-10-08T01:14:53;5.68;;;2.42;;
30327;SDS011;17133;52.418;13.398;2023-10-08T01:17:20;6.75;;;2.53;;
30327;SDS011;17133;52.418;13.398;2023-10-08T01:19:51;7.00;;;2.63;;
30327;SDS011;17133;52.418;13.398;2023-10-08T01:22:34;6.50;;;2.38;;
30327;SDS011;17133;52.418;13.398;2023-10-08T01:24:59;8.95;;;2.67;;
30327;SDS011;17133;52.418;13.398;2023-10-08T01:27:29;5.32;;;2.90;;
30327;SDS011;17133;52.418;13.398;2023-10-08T01:29:59;6.07;;;2.60;;
30327;SDS011;17133;52.418;13.398;2023-10-08T01:32:43;8.43;;;2.97;;
30327;SDS011;17133;52.418;13.398;2023-10-08T01:35:09;9.98;;;2.92;;
30327;SDS011;17133;52.418;13.398;2023-10-08T01:37:50;8.43;;;2.55;;
30327;SDS011;17133;52.418;13.398;2023-10-08T01:40:16;8.30;;;2.78;;
30327;SDS011;17133;52.418;13.398;2023-10-08T01:42:42;9.77;;;2.72;;
30327;SDS011;17133;52.418;13.398;2023-10-08T01:45:08;10.82;;;2.90;;
30327;SDS011;17133;52.418;13.398;2023-10-08T01:47:37;8.88;;;2.33;;
30327;SDS011;17133;52.418;13.398;2023-10-08T01:50:03;6.80;;;3.00;;
30327;SDS011;17133;52.418;13.398;2023-10-08T01:52:46;10.75;;;2.72;;
30327;SDS011;17133;52.418;13.398;2023-10-08T01:55:12;5.55;;;2.35;;
30327;SDS011;17133;52.418;13.398;2023-10-08T01:57:42;8.10;;;2.50;;
30327;SDS011;17133;52.418;13.398;2023-10-08T02:00:08;6.13;;;2.70;;
30327;SDS011;17133;52.418;13.398;2023-10-08T02:02:35;5.50;;;2.47;;
30327;SDS011;17133;52.418;13.398;2023-10-08T02:05:01;4.97;;;2.47;;
30327;SDS011;17133;52.418;13.398;2023-10-08T02:07:27;8.85;;;3.35;;
30327;SDS011;17133;52.418;13.398;2023-10-08T02:09:53;11.23;;;3.42;;
30327;SDS011;17133;52.418;13.398;2023-10-08T02:12:19;8.00;;;2.92;;
30327;SDS011;17133;52.418;13.398;2023-10-08T02:14:45;8.60;;;2.83;;
30327;SDS011;17133;52.418;13.398;2023-10-08T02:17:10;8.73;;;2.95;;
30327;SDS011;17133;52.418;13.398;2023-10-08T02:19:38;5.68;;;3.10;;
30327;SDS011;17133;52.418;13.398;2023-10-08T02:22:03;9.77;;;3.50;;
30327;SDS011;17133;52.418;13.398;2023-10-08T02:24:34;7.60;;;2.95;;
30327;SDS011;17133;52.418;13.398;2023-10-08T02:27:01;8.98;;;3.70;;
30327;SDS011;17133;52.418;13.398;2023-10-08T02:29:28;9.90;;;3.38;;
30327;SDS011;17133;52.418;13.398;2023-10-08T02:31:55;9.00;;;3.35;;
30327;SDS011;17133;52.418;13.398;2023-10-08T02:34:24;9.77;;;4.43;;
30327;SDS011;17133;52.418;13.398;2023-10-08T02:36:50;12.93;;;4.43;;
30327;SDS011;17133;52.418;13.398;2023-10-08T02:39:16;13.73;;;4.65;;
30327;SDS011;17133;52.418;13.398;2023-10-08T02:41:46;14.80;;;4.65;;
30327;SDS011;17133;52.418;13.398;2023-10-08T02:44:13;10.45;;;4.88;;
30327;SDS011;17133;52.418;13.398;2023-10-08T02:46:40;9.32;;;4.40;;
30327;SDS011;17133;52.418;13.398;2023-10-08T02:49:10;9.27;;;4.78;;
30327;SDS011;17133;52.418;13.398;2023-10-08T02:51:39;17.88;;;5.22;;
30327;SDS011;17133;52.418;13.398;2023-10-08T02:54:06;11.10;;;5.13;;
30327;SDS011;17133;52.418;13.398;2023-10-08T02:56:41;11.63;;;5.65;;
30327;SDS011;17133;52.418;13.398;2023-10-08T02:59:09;12.43;;;5.90;;
30327;SDS011;17133;52.418;13.398;2023-10-08T03:01:37;15.32;;;5.85;;
30327;SDS011;17133;52.418;13.398;2023-10-08T03:04:05;15.70;;;5.70;;
30327;SDS011;17133;52.418;13.398;2023-10-08T03:06:40;15.30;;;6.22;;
30327;SDS011;17133;52.418;13.398;2023-10-08T03:09:06;12.10;;;5.60;;
30327;SDS011;17133;52.418;13.398;2023-10-08T03:11:38;11.43;;;5.28;;
30327;SDS011;17133;52.418;13.398;2023-10-08T03:14:04;9.55;;;5.40;;
30327;SDS011;17133;52.418;13.398;2023-10-08T03:16:40;14.23;;;6.30;;
30327;SDS011;17133;52.418;13.398;2023-10-08T03:19:06;11.68;;;6.15;;
30327;SDS011;17133;52.418;13.398;2023-10-08T03:21:31;11.73;;;5.45;;
30327;SDS011;17133;52.418;13.398;2023-10-08T03:24:03;14.13;;;6.32;;
30327;SDS011;17133;52.418;13.398;2023-10-08T03:26:38;10.82;;;5.45;;
30327;SDS011;17133;52.418;13.398;2023-10-08T03:29:05;11.77;;;5.93;;
30327;SDS011;17133;52.418;13.398;2023-10-08T03:31:40;16.55;;;6.72;;
30327;SDS011;17133;52.418;13.398;2023-10-08T03:34:18;15.45;;;6.47;;
30327;SDS011;17133;52.418;13.398;2023-10-08T03:36:44;12.77;;;5.57;;
30327;SDS011;17133;52.418;13.398;2023-10-08T03:39:12;13.90;;;6.35;;
30327;SDS011;17133;52.418;13.398;2023-10-08T03:41:42;15.23;;;6.03;;
30327;SDS011;17133;52.418;13.398;2023-10-08T03:44:22;15.68;;;5.45;;
30327;SDS011;17133;52.418;13.398;2023-10-08T03:46:49;15.15;;;5.63;;
30327;SDS011;17133;52.418;13.398;2023-10-08T03:49:17;13.00;;;5.68;;
30327;SDS011;17133;52.418;13.398;2023-10-08T03:51:46;12.77;;;5.85;;
30327;SDS011;17133;52.418;13.398;2023-10-08T03:54:13;11.73;;;4.82;;
30327;SDS011;17133;52.418;13.398;2023-10-08T03:56:39;13.73;;;5.35;;
30327;SDS011;17133;52.418;13.398;2023-10-08T03:59:10;11.40;;;4.57;;
30327;SDS011;17133;52.418;13.398;2023-10-08T04:01:54;13.32;;;5.70;;
30327;SDS011;17133;52.418;13.398;2023-10-08T04:04:24;15.40;;;5.22;;
30327;SDS011;17133;52.418;13.398;2023-10-08T04:07:14;10.55;;;4.55;;
30327;SDS011;17133;52.418;13.398;2023-10-08T04:09:58;13.50;;;4.90;;
30327;SDS011;17133;52.418;13.398;2023-10-08T04:12:50;10.82;;;4.65;;
30327;SDS011;17133;52.418;13.398;2023-10-08T04:15:18;10.50;;;4.35;;
30327;SDS011;17133;52.418;13.398;2023-10-08T04:17:44;8.45;;;4.55;;
30327;SDS011;17133;52.418;13.398;2023-10-08T04:20:16;13.85;;;5.28;;
30327;SDS011;17133;52.418;13.398;2023-10-08T04:23:01;10.00;;;4.20;;
30327;SDS011;17133;52.418;13.398;2023-10-08T04:25:29;10.70;;;4.03;;
30327;SDS011;17133;52.418;13.398;2023-10-08T04:27:57;13.35;;;4.88;;
30327;SDS011;17133;52.418;13.398;2023-10-08T04:30:27;8.00;;;3.65;;
30327;SDS011;17133;52.418;13.398;2023-10-08T04:33:03;8.20;;;3.80;;
30327;SDS011;17133;52.418;13.398;2023-10-08T04:35:33;7.63;;;3.95;;
30327;SDS011;17133;52.418;13.398;2023-10-08T04:38:12;10.05;;;5.03;;
30327;SDS011;17133;52.418;13.398;2023-10-08T04:40:42;15.45;;;5.35;;
30327;SDS011;17133;52.418;13.398;2023-10-08T04:43:13;11.70;;;3.90;;
30327;SDS011;17133;52.418;13.398;2023-10-08T04:45:49;19.77;;;5.28;;
30327;SDS011;17133;52.418;13.398;2023-10-08T04:48:16;6.90;;;4.45;;
30327;SDS011;17133;52.418;13.398;2023-10-08T04:50:45;7.95;;;3.75;;
30327;SDS011;17133;52.418;13.398;2023-10-08T04:53:16;10.65;;;4.35;;
30327;SDS011;17133;52.418;13.398;2023-10-08T04:55:42;10.95;;;4.82;;
30327;SDS011;17133;52.418;13.398;2023-10-08T04:58:13;17.23;;;5.05;;
30327;SDS011;17133;52.418;13.398;2023-10-08T05:00:46;9.55;;;4.28;;
30327;SDS011;17133;52.418;13.398;2023-10-08T05:03:24;6.63;;;4.00;;
30327;SDS011;17133;52.418;13.398;2023-10-08T05:05:57;11.60;;;4.10;;
30327;SDS011;17133;52.418;13.398;2023-10-08T05:08:34;8.90;;;4.30;;
30327;SDS011;17133;52.418;13.398;2023-10-08T05:11:20;11.63;;;4.55;;
30327;SDS011;17133;52.418;13.398;2023-10-08T05:14:04;11.93;;;4.82;;
30327;SDS011;17133;52.418;13.398;2023-10-08T05:16:41;9.55;;;4.35;;
30327;SDS011;17133;52.418;13.398;2023-10-08T05:19:25;12.68;;;3.90;;
30327;SDS011;17133;52.418;13.398;2023-10-08T05:22:04;9.48;;;3.65;;
30327;SDS011;17133;52.418;13.398;2023-10-08T05:24:48;9.07;;;4.25;;
30327;SDS011;17133;52.418;13.398;2023-10-08T05:27:33;8.70;;;3.85;;
30327;SDS011;17133;52.418;13.398;2023-10-08T05:30:06;11.45;;;4.22;;
30327;SDS011;17133;52.418;13.398;2023-10-08T05:33:01;9.35;;;3.83;;
30327;SDS011;17133;52.418;13.398;2023-10-08T05:35:42;10.32;;;3.90;;
30327;SDS011;17133;52.418;13.398;2023-10-08T05:38:12;8.82;;;3.42;;
30327;SDS011;17133;52.418;13.398;2023-10-08T05:40:55;9.25;;;4.15;;
30327;SDS011;17133;52.418;13.398;2023-10-08T05:43:28;8.95;;;3.80;;
30327;SDS011;17133;52.418;13.398;2023-10-08T05:46:08;7.32;;;3.83;;
30327;SDS011;17133;52.418;13.398;2023-10-08T05:49:04;8.57;;;2.90;;
30327;SDS011;17133;52.418;13.398;2023-10-08T05:51:33;5.10;;;3.33;;
30327;SDS011;17133;52.418;13.398;2023-10-08T05:54:13;6.55;;;3.65;;
30327;SDS011;17133;52.418;13.398;2023-10-08T05:56:53;7.80;;;4.00;;
30327;SDS011;17133;52.418;13.398;2023-10-08T06:02:21;10.00;;;3.92;;
30327;SDS011;17133;52.418;13.398;2023-10-08T06:04:58;7.38;;;3.67;;
30327;SDS011;17133;52.418;13.398;2023-10-08T06:07:37;9.05;;;3.58;;
30327;SDS011;17133;52.418;13.398;2023-10-08T06:10:32;8.00;;;3.80;;
30327;SDS011;17133;52.418;13.398;2023-10-08T06:13:01;8.80;;;4.22;;
30327;SDS011;17133;52.418;13.398;2023-10-08T06:15:38;7.00;;;3.35;;
30327;SDS011;17133;52.418;13.398;2023-10-08T06:18:30;14.25;;;4.32;;
30327;SDS011;17133;52.418;13.398;2023-10-08T06:21:03;12.38;;;4.95;;
30327;SDS011;17133;52.418;13.398;2023-10-08T06:23:34;9.82;;;4.15;;
30327;SDS011;17133;52.418;13.398;2023-10-08T06:26:01;9.95;;;4.20;;
30327;SDS011;17133;52.418;13.398;2023-10-08T06:28:39;9.55;;;4.07;;
30327;SDS011;17133;52.418;13.398;2023-10-08T06:31:07;11.43;;;3.92;;
30327;SDS011;17133;52.418;13.398;2023-10-08T06:33:37;11.15;;;4.13;;
30327;SDS011;17133;52.418;13.398;2023-10-08T06:36:03;9.13;;;3.97;;
30327;SDS011;17133;52.418;13.398;2023-10-08T06:38:36;12.73;;;4.20;;
30327;SDS011;17133;52.418;13.398;2023-10-08T06:41:03;8.93;;;4.32;;
30327;SDS011;17133;52.418;13.398;2023-10-08T06:43:39;11.02;;;4.15;;
30327;SDS011;17133;52.418;13.398;2023-10-08T06:46:10;11.48;;;3.92;;
30327;SDS011;17133;52.418;13.398;2023-10-08T06:48:39;13.43;;;4.20;;
30327;SDS011;17133;52.418;13.398;2023-10-08T06:51:09;10.70;;;4.10;;
30327;SDS011;17133;52.418;13.398;2023-10-08T06:53:45;8.98;;;3.58;;
30327;SDS011;17133;52.418;13.398;2023-10-08T06:56:15;14.38;;;4.30;;
30327;SDS011;17133;52.418;13.398;2023-10-08T06:58:44;6.03;;;3.50;;
30327;SDS011;17133;52.418;13.398;2023-10-08T07:01:12;7.95;;;3.95;;
30327;SDS011;17133;52.418;13.398;2023-10-08T07:03:38;11.57;;;3.55;;
30327;SDS011;17133;52.418;13.398;2023-10-08T07:06:04;11.07;;;3.60;;
30327;SDS011;17133;52.418;13.398;2023-10-08T07:08:42;7.90;;;2.70;;
30327;SDS011;17133;52.418;13.398;2023-10-08T07:11:11;5.72;;;2.50;;
30327;SDS011;17133;52.418;13.398;2023-10-08T07:13:38;9.50;;;2.75;;
30327;SDS011;17133;52.418;13.398;2023-10-08T07:16:07;10.95;;;2.67;;
30327;SDS011;17133;52.418;13.398;2023-10-08T07:18:36;7.40;;;3.08;;
30327;SDS011;17133;52.418;13.398;2023-10-08T07:21:03;6.53;;;2.30;;
30327;SDS011;17133;52.418;13.398;2023-10-08T07:23:37;7.70;;;2.85;;
30327;SDS011;17133;52.418;13.398;2023-10-08T07:26:21;9.43;;;3.30;;
30327;SDS011;17133;52.418;13.398;2023-10-08T07:28:51;5.78;;;2.42;;
30327;SDS011;17133;52.418;13.398;2023-10-08T07:31:23;6.53;;;2.50;;
30327;SDS011;17133;52.418;13.398;2023-10-08T07:33:50;6.13;;;2.40;;
30327;SDS011;17133;52.418;13.398;2023-10-08T07:36:24;5.43;;;2.17;;
30327;SDS011;17133;52.418;13.398;2023-10-08T07:38:52;5.80;;;2.45;;
30327;SDS011;17133;52.418;13.398;2023-10-08T07:41:18;4.55;;;1.98;;
30327;SDS011;17133;52.418;13.398;2023-10-08T07:43:48;8.45;;;2.85;;
30327;SDS011;17133;52.418;13.398;2023-10-08T07:46:24;6.50;;;1.90;;
30327;SDS011;17133;52.418;13.398;2023-10-08T07:48:53;4.90;;;2.15;;
30327;SDS011;17133;52.418;13.398;2023-10-08T07:51:19;4.13;;;1.90;;
30327;SDS011;17133;52.418;13.398;2023-10-08T07:53:49;8.02;;;1.95;;
30327;SDS011;17133;52.418;13.398;2023-10-08T07:56:19;5.93;;;1.60;;
30327;SDS011;17133;52.418;13.398;2023-10-08T07:58:45;9.48;;;1.80;;
30327;SDS011;17133;52.418;13.398;2023-10-08T08:01:12;6.47;;;1.90;;
30327;SDS011;17133;52.418;13.398;2023-10-08T08:03:39;4.65;;;1.65;;
30327;SDS011;17133;52.418;13.398;2023-10-08T08:06:06;3.53;;;1.77;;
30327;SDS011;17133;52.418;13.398;2023-10-08T08:08:33;5.60;;;1.85;;
30327;SDS011;17133;52.418;13.398;2023-10-08T08:11:01;4.03;;;1.70;;
30327;SDS011;17133;52.418;13.398;2023-10-08T08:13:37;3.28;;;1.40;;
30327;SDS011;17133;52.418;13.398;2023-10-08T08:16:04;3.30;;;1.67;;
30327;SDS011;17133;52.418;13.398;2023-10-08T08:21:13;5.10;;;2.22;;
30327;SDS011;17133;52.418;13.398;2023-10-08T08:23:44;3.88;;;1.38;;
30327;SDS011;17133;52.418;13.398;2023-10-08T08:26:14;4.47;;;1.80;;
30327;SDS011;17133;52.418;13.398;2023-10-08T08:28:57;3.42;;;1.45;;
30327;SDS011;17133;52.418;13.398;2023-10-08T08:31:26;4.38;;;1.88;;
30327;SDS011;17133;52.418;13.398;2023-10-08T08:34:00;4.68;;;1.63;;
30327;SDS011;17133;52.418;13.398;2023-10-08T08:36:42;4.95;;;1.55;;
30327;SDS011;17133;52.418;13.398;2023-10-08T08:39:14;5.45;;;1.60;;
30327;SDS011;17133;52.418;13.398;2023-10-08T08:41:54;4.20;;;1.27;;
30327;SDS011;17133;52.418;13.398;2023-10-08T08:44:25;5.10;;;1.33;;
30327;SDS011;17133;52.418;13.398;2023-10-08T08:46:54;3.78;;;2.15;;
30327;SDS011;17133;52.418;13.398;2023-10-08T08:49:23;1.98;;;0.98;;
30327;SDS011;17133;52.418;13.398;2023-10-08T08:51:50;6.15;;;1.60;;
30327;SDS011;17133;52.418;13.398;2023-10-08T08:54:20;4.43;;;1.25;;
30327;SDS011;17133;52.418;13.398;2023-10-08T08:56:46;2.50;;;1.25;;
30327;SDS011;17133;52.418;13.398;2023-10-08T08:59:13;3.20;;;1.40;;
30327;SDS011;17133;52.418;13.398;2023-10-08T09:01:39;2.85;;;1.38;;
30327;SDS011;17133;52.418;13.398;2023-10-08T09:04:07;3.47;;;1.40;;
30327;SDS011;17133;52.418;13.398;2023-10-08T09:06:36;4.78;;;1.52;;
30327;SDS011;17133;52.418;13.398;2023-10-08T09:09:05;4.00;;;1.45;;
30327;SDS011;17133;52.418;13.398;2023-10-08T09:11:47;2.30;;;1.08;;
30327;SDS011;17133;52.418;13.398;2023-10-08T09:14:17;3.78;;;1.30;;
30327;SDS011;17133;52.418;13.398;2023-10-08T09:16:50;2.67;;;1.23;;
30327;SDS011;17133;52.418;13.398;2023-10-08T09:19:16;3.67;;;1.38;;
30327;SDS011;17133;52.418;13.398;2023-10-08T09:22:05;3.58;;;1.45;;
30327;SDS011;17133;52.418;13.398;2023-10-08T09:27:06;7.30;;;1.80;;
30327;SDS011;17133;52.418;13.398;2023-10-08T09:29:35;2.83;;;1.00;;
30327;SDS011;17133;52.418;13.398;2023-10-08T09:32:08;4.88;;;1.63;;
30327;SDS011;17133;52.418;13.398;2023-10-08T09:34:35;4.63;;;1.33;;
30327;SDS011;17133;52.418;13.398;2023-10-08T09:37:01;1.92;;;0.95;;
30327;SDS011;17133;52.418;13.398;2023-10-08T09:39:28;2.85;;;1.08;;
30327;SDS011;17133;52.418;13.398;2023-10-08T09:41:59;2.95;;;1.30;;
30327;SDS011;17133;52.418;13.398;2023-10-08T09:44:27;3.33;;;1.65;;
30327;SDS011;17133;52.418;13.398;2023-10-08T09:46:55;4.65;;;1.27;;
30327;SDS011;17133;52.418;13.398;2023-10-08T09:49:56;3.35;;;1.02;;
30327;SDS011;17133;52.418;13.398;2023-10-08T09:52:23;3.65;;;1.50;;
30327;SDS011;17133;52.418;13.398;2023-10-08T09:55:02;2.75;;;0.95;;
30327;SDS011;17133;52.418;13.398;2023-10-08T09:57:37;2.07;;;1.03;;
30327;SDS011;17133;52.418;13.398;2023-10-08T10:00:06;4.38;;;1.13;;
30327;SDS011;17133;52.418;13.398;2023-10-08T10:02:40;1.77;;;1.10;;
30327;SDS011;17133;52.418;13.398;2023-10-08T10:05:10;3.20;;;1.27;;
30327;SDS011;17133;52.418;13.398;2023-10-08T10:07:36;4.55;;;1.20;;
30327;SDS011;17133;52.418;13.398;2023-10-08T10:10:24;1.90;;;0.75;;
30327;SDS011;17133;52.418;13.398;2023-10-08T10:12:51;2.67;;;1.15;;
30327;SDS011;17133;52.418;13.398;2023-10-08T10:15:19;2.50;;;0.80;;
30327;SDS011;17133;52.418;13.398;2023-10-08T10:17:47;3.53;;;1.00;;
30327;SDS011;17133;52.418;13.398;2023-10-08T10:20:14;2.85;;;1.00;;
30327;SDS011;17133;52.418;13.398;2023-10-08T10:22:40;1.58;;;0.60;;
30327;SDS011;17133;52.418;13.398;2023-10-08T10:25:08;1.55;;;0.75;;
30327;SDS011;17133;52.418;13.398;2023-10-08T10:28:27;1.88;;;0.70;;
30327;SDS011;17133;52.418;13.398;2023-10-08T10:30:29;4.90;;;1.05;;
30327;SDS011;17133;52.418;13.398;2023-10-08T10:32:55;3.00;;;0.80;;
30327;SDS011;17133;52.418;13.398;2023-10-08T10:35:25;1.92;;;0.80;;
30327;SDS011;17133;52.418;13.398;2023-10-08T10:37:53;2.50;;;0.80;;
30327;SDS011;17133;52.418;13.398;2023-10-08T10:40:23;1.77;;;0.90;;
30327;SDS011;17133;52.418;13.398;2023-10-08T10:43:04;1.80;;;0.85;;
30327;SDS011;17133;52.418;13.398;2023-10-08T10:45:40;2.00;;;0.90;;
30327;SDS011;17133;52.418;13.398;2023-10-08T10:48:11;2.85;;;0.90;;
30327;SDS011;17133;52.418;13.398;2023-10-08T10:50:45;1.73;;;0.85;;
30327;SDS011;17133;52.418;13.398;2023-10-08T10:53:39;1.73;;;0.80;;
30327;SDS011;17133;52.418;13.398;2023-10-08T10:56:24;1.70;;;0.80;;
30327;SDS011;17133;52.418;13.398;2023-10-08T10:58:59;1.95;;;0.90;;
30327;SDS011;17133;52.418;13.398;2023-10-08T11:01:27;3.17;;;1.00;;
30327;SDS011;17133;52.418;13.398;2023-10-08T11:03:55;3.42;;;1.38;;
30327;SDS011;17133;52.418;13.398;2023-10-08T11:06:22;2.45;;;0.90;;
30327;SDS011;17133;52.418;13.398;2023-10-08T11:08:50;3.05;;;1.13;;
30327;SDS011;17133;52.418;13.398;2023-10-08T11:11:17;2.85;;;0.88;;
30327;SDS011;17133;52.418;13.398;2023-10-08T11:13:55;2.92;;;0.98;;
30327;SDS011;17133;52.418;13.398;2023-10-08T11:16:25;1.63;;;0.88;;
30327;SDS011;17133;52.418;13.398;2023-10-08T11:18:52;1.83;;;0.90;;
30327;SDS011;17133;52.418;13.398;2023-10-08T11:21:22;2.30;;;1.10;;
30327;SDS011;17133;52.418;13.398;2023-10-08T11:23:49;1.48;;;0.82;;
30327;SDS011;17133;52.418;13.398;2023-10-08T11:26:23;3.80;;;1.17;;
30327;SDS011;17133;52.418;13.398;2023-10-08T11:29:00;2.20;;;0.90;;
30327;SDS011;17133;52.418;13.398;2023-10-08T11:31:28;1.45;;;0.90;;
30327;SDS011;17133;52.418;13.398;2023-10-08T11:34:01;2.72;;;1.00;;
30327;SDS011;17133;52.418;13.398;2023-10-08T11:36:35;3.67;;;1.30;;
30327;SDS011;17133;52.418;13.398;2023-10-08T11:39:13;2.35;;;0.82;;
30327;SDS011;17133;52.418;13.398;2023-10-08T11:44:51;1.85;;;0.85;;
30327;SDS011;17133;52.418;13.398;2023-10-08T11:47:17;3.33;;;1.40;;
30327;SDS011;17133;52.418;13.398;2023-10-08T11:49:46;3.15;;;1.52;;
30327;SDS011;17133;52.418;13.398;2023-10-08T11:52:15;1.83;;;0.80;;
30327;SDS011;17133;52.418;13.398;2023-10-08T11:54:42;2.22;;;1.00;;
30327;SDS011;17133;52.418;13.398;2023-10-08T11:57:09;1.95;;;0.88;;
30327;SDS011;17133;52.418;13.398;2023-10-08T11:59:35;1.40;;;0.63;;
30327;SDS011;17133;52.418;13.398;2023-10-08T12:02:04;1.13;;;0.63;;
30327;SDS011;17133;52.418;13.398;2023-10-08T12:04:33;1.65;;;0.88;;
30327;SDS011;17133;52.418;13.398;2023-10-08T12:06:59;3.53;;;1.15;;
30327;SDS011;17133;52.418;13.398;2023-10-08T12:09:27;3.28;;;1.10;;
30327;SDS011;17133;52.418;13.398;2023-10-08T12:11:54;3.13;;;1.38;;
30327;SDS011;17133;52.418;13.398;2023-10-08T12:14:22;3.83;;;1.23;;
30327;SDS011;17133;52.418;13.398;2023-10-08T12:16:55;3.08;;;0.88;;
30327;SDS011;17133;52.418;13.398;2023-10-08T12:19:20;2.30;;;1.00;;
30327;SDS011;17133;52.418;13.398;2023-10-08T12:21:47;2.95;;;1.00;;
30327;SDS011;17133;52.418;13.398;2023-10-08T12:24:13;7.05;;;1.20;;
30327;SDS011;17133;52.418;13.398;2023-10-08T12:26:39;4.97;;;1.38;;
30327;SDS011;17133;52.418;13.398;2023-10-08T12:29:14;2.38;;;1.00;;
30327;SDS011;17133;52.418;13.398;2023-10-08T12:31:42;2.05;;;0.75;;
30327;SDS011;17133;52.418;13.398;2023-10-08T12:34:12;2.38;;;1.08;;
30327;SDS011;17133;52.418;13.398;2023-10-08T12:39:07;2.42;;;1.10;;
30327;SDS011;17133;52.418;13.398;2023-10-08T12:41:40;1.83;;;1.00;;
30327;SDS011;17133;52.418;13.398;2023-10-08T12:44:08;3.13;;;1.00;;
30327;SDS011;17133;52.418;13.398;2023-10-08T12:46:35;2.08;;;0.98;;
30327;SDS011;17133;52.418;13.398;2023-10-08T12:49:01;6.47;;;0.93;;
30327;SDS011;17133;52.418;13.398;2023-10-08T12:51:27;1.95;;;0.73;;
30327;SDS011;17133;52.418;13.398;2023-10-08T12:53:57;2.20;;;0.95;;
30327;SDS011;17133;52.418;13.398;2023-10-08T12:56:35;1.60;;;0.82;;
30327;SDS011;17133;52.418;13.398;2023-10-08T12:59:09;1.63;;;0.93;;
30327;SDS011;17133;52.418;13.398;2023-10-08T13:01:45;2.92;;;0.95;;
30327;SDS011;17133;52.418;13.398;2023-10-08T13:04:15;1.33;;;0.73;;
30327;SDS011;17133;52.418;13.398;2023-10-08T13:06:58;2.25;;;1.00;;
30327;SDS011;17133;52.418;13.398;2023-10-08T13:09:26;2.20;;;0.80;;
30327;SDS011;17133;52.418;13.398;2023-10-08T13:11:52;1.38;;;0.70;;
30327;SDS011;17133;52.418;13.398;2023-10-08T13:14:18;1.95;;;0.80;;
30327;SDS011;17133;52.418;13.398;2023-10-08T13:16:44;4.13;;;1.08;;
30327;SDS011;17133;52.418;13.398;2023-10-08T13:19:10;2.80;;;1.17;;
30327;SDS011;17133;52.418;13.398;2023-10-08T13:21:36;1.00;;;0.57;;
30327;SDS011;17133;52.418;13.398;2023-10-08T13:24:02;2.95;;;1.08;;
30327;SDS011;17133;52.418;13.398;2023-10-08T13:26:30;3.20;;;1.05;;
30327;SDS011;17133;52.418;13.398;2023-10-08T13:28:59;3.78;;;1.42;;
30327;SDS011;17133;52.418;13.398;2023-10-08T13:31:25;2.55;;;1.10;;
30327;SDS011;17133;52.418;13.398;2023-10-08T13:33:51;2.47;;;0.75;;
30327;SDS011;17133;52.418;13.398;2023-10-08T13:36:17;2.60;;;1.10;;
30327;SDS011;17133;52.418;13.398;2023-10-08T13:38:43;1.40;;;0.73;;
30327;SDS011;17133;52.418;13.398;2023-10-08T13:41:11;2.20;;;0.98;;
30327;SDS011;17133;52.418;13.398;2023-10-08T13:46:13;5.55;;;2.90;;
30327;SDS011;17133;52.418;13.398;2023-10-08T13:48:47;6.22;;;2.65;;
30327;SDS011;17133;52.418;13.398;2023-10-08T13:51:15;2.65;;;0.90;;
30327;SDS011;17133;52.418;13.398;2023-10-08T13:53:52;6.32;;;2.80;;
30327;SDS011;17133;52.418;13.398;2023-10-08T13:56:21;4.32;;;1.10;;
30327;SDS011;17133;52.418;13.398;2023-10-08T13:58:52;3.00;;;1.05;;
30327;SDS011;17133;52.418;13.398;2023-10-08T14:01:28;2.40;;;0.70;;
30327;SDS011;17133;52.418;13.398;2023-10-08T14:03:58;2.42;;;1.13;;
30327;SDS011;17133;52.418;13.398;2023-10-08T14:06:30;3.22;;;0.70;;
30327;SDS011;17133;52.418;13.398;2023-10-08T14:08:57;1.92;;;0.90;;
30327;SDS011;17133;52.418;13.398;2023-10-08T14:11:25;1.40;;;0.90;;
30327;SDS011;17133;52.418;13.398;2023-10-08T14:13:55;3.85;;;0.80;;
30327;SDS011;17133;52.418;13.398;2023-10-08T14:16:27;2.33;;;0.88;;
30327;SDS011;17133;52.418;13.398;2023-10-08T14:18:57;2.47;;;1.08;;
30327;SDS011;17133;52.418;13.398;2023-10-08T14:21:24;1.95;;;0.85;;
30327;SDS011;17133;52.418;13.398;2023-10-08T14:23:58;2.38;;;0.80;;
30327;SDS011;17133;52.418;13.398;2023-10-08T14:26:28;2.88;;;1.13;;
30327;SDS011;17133;52.418;13.398;2023-10-08T14:29:01;3.53;;;0.80;;
30327;SDS011;17133;52.418;13.398;2023-10-08T14:31:33;2.70;;;0.93;;
30327;SDS011;17133;52.418;13.398;2023-10-08T14:33:59;4.07;;;1.40;;
30327;SDS011;17133;52.418;13.398;2023-10-08T14:36:44;1.38;;;0.77;;
30327;SDS011;17133;52.418;13.398;2023-10-08T14:39:32;1.80;;;0.98;;
30327;SDS011;17133;52.418;13.398;2023-10-08T14:42:17;2.83;;;1.15;;
30327;SDS011;17133;52.418;13.398;2023-10-08T14:45:02;2.03;;;0.80;;
30327;SDS011;17133;52.418;13.398;2023-10-08T14:47:31;2.40;;;1.00;;
30327;SDS011;17133;52.418;13.398;2023-10-08T14:49:56;3.78;;;1.27;;
30327;SDS011;17133;52.418;13.398;2023-10-08T14:52:22;3.08;;;1.15;;
30327;SDS011;17133;52.418;13.398;2023-10-08T14:54:49;2.80;;;1.20;;
30327;SDS011;17133;52.418;13.398;2023-10-08T14:57:16;2.33;;;1.30;;
30327;SDS011;17133;52.418;13.398;2023-10-08T14:59:43;2.75;;;1.02;;
30327;SDS011;17133;52.418;13.398;2023-10-08T15:02:09;2.13;;;0.80;;
30327;SDS011;17133;52.418;13.398;2023-10-08T15:04:36;2.47;;;1.10;;
30327;SDS011;17133;52.418;13.398;2023-10-08T15:07:04;4.40;;;1.10;;
30327;SDS011;17133;52.418;13.398;2023-10-08T15:09:36;2.90;;;1.45;;
30327;SDS011;17133;52.418;13.398;2023-10-08T15:12:04;2.20;;;1.10;;